Time;durP1;ratioP1;P1;durP2;ratioP2;P2;SDS_P1;SDS_P2;PMS_P1;PMS_P2;Temp;Humidity;BMP_temperature;BMP_pressure;BME280_temperature;BME280_humidity;BME280_pressure;Samples;Min_cycle;Max_cycle;Signal;HPM_P1;HPM_P2
2023/03/04 00:01:03;;;;;;;;;;;;;;;;;;5050689;28;1080;-62
2023/03/04 00:03:28;;;;;;;;;;;;;;;;;;5052469;28;1096;-67
2023/03/04 00:05:53;;;;;;;;;;;;;;;;;;5037971;28;1894;-66
2023/03/04 00:08:18;;;;;;;;;;;;;;;;;;5051737;28;1187;-63
2023/03/04 00:10:44;;;;;;;;;;;;;;;;;;5083987;28;1158;-60
2023/03/04 00:13:09;;;;;;;;;;;;;;;;;;5051824;28;1092;-67
2023/03/04 00:15:34;;;;;;;;;;;;;;;;;;5051661;28;1033;-67
2023/03/04 00:18:00;;;;;;;;;;;;;;;;;;5051611;28;1100;-68
2023/03/04 00:20:25;;;;;;;;;;;;;;;;;;5052102;28;1096;-64
2023/03/04 00:22:50;;;;;;;;;;;;;;;;;;5051698;28;1143;-64
2023/03/04 00:25:15;;;;;;;;;;;;;;;;;;5051419;28;1965;-66
2023/03/04 00:27:41;;;;;;;;;;;;;;;;;;5051763;28;1100;-67
2023/03/04 00:30:06;;;;;;;;;;;;;;;;;;5038316;28;1154;-67
2023/03/04 00:32:32;;;;;;;;;;;;;;;;;;5051962;28;1155;-68
2023/03/04 00:34:57;;;;;;;;;;;;;;;;;;5043308;28;1674;-66
2023/03/04 00:37:22;;;;;;;;;;;;;;;;;;5046350;28;1105;-66
2023/03/04 00:39:47;;;;;;;;;;;;;;;;;;5050775;28;1329;-66
2023/03/04 00:42:13;;;;;;;;;;;;;;;;;;5047517;28;1016;-66
2023/03/04 00:44:38;;;;;;;;;;;;;;;;;;5049281;28;1979;-67
2023/03/04 00:47:03;;;;;;;;;;;;;;;;;;5051174;28;1100;-66
2023/03/04 00:49:28;;;;;;;;;;;;;;;;;;5051478;28;1107;-68
2023/03/04 00:51:54;;;;;;;;;;;;;;;;;;5051723;28;1105;-68
2023/03/04 00:54:19;;;;;;;;;;;;;;;;;;5051451;28;1131;-63
2023/03/04 00:56:44;;;;;;;;;;;;;;;;;;5083770;28;1075;-64
2023/03/04 00:59:10;;;;;;;;;;;;;;;;;;5051626;28;1084;-62
2023/03/04 01:01:35;;;;;;;;;;;;;;;;;;5051299;28;1183;-65
2023/03/04 01:04:00;;;;;;;;;;;;;;;;;;5051131;28;1890;-66
2023/03/04 01:06:25;;;;;;;;;;;;;;;;;;5038693;28;1061;-67
2023/03/04 01:08:51;;;;;;;;;;;;;;;;;;5051431;28;1100;-67
2023/03/04 01:11:16;;;;;;;;;;;;;;;;;;5051114;28;1155;-67
2023/03/04 01:13:41;;;;;;;;;;;;;;;;;;5051187;28;1167;-65
2023/03/04 01:16:06;;;;;;;;;;;;;;;;;;5050935;28;1112;-62
2023/03/04 01:18:32;;;;;;;;;;;;;;;;;;5051343;28;1206;-53
2023/03/04 01:20:57;;;;;;;;;;;;;;;;;;5051478;28;1108;-67
2023/03/04 01:23:23;;;;;;;;;;;;;;;;;;5051228;28;1127;-67
2023/03/04 01:25:48;;;;;;;;;;;;;;;;;;5050609;28;1969;-67
2023/03/04 01:28:13;;;;;;;;;;;;;;;;;;5051088;28;1155;-68
2023/03/04 01:30:38;;;;;;;;;;;;;;;;;;5050990;28;1159;-67
2023/03/04 01:33:04;;;;;;;;;;;;;;;;;;5054645;28;1159;-67
2023/03/04 01:35:29;;;;;;;;;;;;;;;;;;5043582;28;1615;-67
2023/03/04 01:37:54;;;;;;;;;;;;;;;;;;5050628;28;1163;-66
2023/03/04 01:40:19;;;;;;;;;;;;;;;;;;5049181;28;1737;-66
2023/03/04 01:42:45;;;;;;;;;;;;;;;;;;5052701;28;1419;-65
2023/03/04 01:45:11;;;;;;;;;;;;;;;;;;5054363;28;1914;-67
2023/03/04 01:47:37;;;;;;;;;;;;;;;;;;5086425;28;1126;-67
2023/03/04 01:50:03;;;;;;;;;;;;;;;;;;5054066;28;1047;-66
2023/03/04 01:52:29;;;;;;;;;;;;;;;;;;5054376;28;1163;-67
2023/03/04 01:54:54;;;;;;;;;;;;;;;;;;5086115;28;1104;-67
2023/03/04 01:57:23;;;;;;;;;;;;;;;;;;5087352;28;1099;-67
2023/03/04 02:00:08;;;;;;;;;;;;;;;;;;5054590;28;1108;-65
2023/03/04 02:02:33;;;;;;;;;;;;;;;;;;5057264;28;1668;-68
2023/03/04 02:04:58;;;;;;;;;;;;;;;;;;5053257;28;1953;-67
2023/03/04 02:07:24;;;;;;;;;;;;;;;;;;5084611;28;1200;-67
2023/03/04 02:09:49;;;;;;;;;;;;;;;;;;5056758;28;1241;-68
2023/03/04 02:12:14;;;;;;;;;;;;;;;;;;5055267;28;1099;-67
2023/03/04 02:14:39;;;;;;;;;;;;;;;;;;5053623;28;1112;-68
2023/03/04 02:17:09;;;;;;;;;;;;;;;;;;5069274;28;1159;-68
2023/03/04 02:19:37;;;;;;;;;;;;;;;;;;5053824;28;1096;-68
2023/03/04 02:22:02;;;;;;;;;;;;;;;;;;5085498;28;1107;-66
2023/03/04 02:24:38;;;;;;;;;;;;;;;;;;5053399;28;1910;-68
2023/03/04 02:27:03;;;;;;;;;;;;;;;;;;5085487;28;1183;-65
2023/03/04 02:29:28;;;;;;;;;;;;;;;;;;5085364;28;1120;-66
2023/03/04 02:31:54;;;;;;;;;;;;;;;;;;5053300;28;1156;-67
2023/03/04 02:34:34;;;;;;;;;;;;;;;;;;5050484;28;1507;-65
2023/03/04 02:37:00;;;;;;;;;;;;;;;;;;5044430;28;1116;-67
2023/03/04 02:39:30;;;;;;;;;;;;;;;;;;5085159;28;1134;-68
2023/03/04 02:41:55;;;;;;;;;;;;;;;;;;5085050;28;1151;-66
2023/03/04 02:44:21;;;;;;;;;;;;;;;;;;5052858;28;1910;-67
2023/03/04 02:46:47;;;;;;;;;;;;;;;;;;5085631;28;1143;-65
2023/03/04 02:49:13;;;;;;;;;;;;;;;;;;5084546;28;1237;-67
2023/03/04 02:51:38;;;;;;;;;;;;;;;;;;5053058;28;1163;-68
2023/03/04 02:54:03;;;;;;;;;;;;;;;;;;5051879;28;1088;-67
2023/03/04 02:56:29;;;;;;;;;;;;;;;;;;5052647;28;1136;-66
2023/03/04 02:58:54;;;;;;;;;;;;;;;;;;5052908;28;1120;-65
2023/03/04 03:01:19;;;;;;;;;;;;;;;;;;5052694;28;1112;-66
2023/03/04 03:03:45;;;;;;;;;;;;;;;;;;5052501;28;1080;-66
2023/03/04 03:06:10;;;;;;;;;;;;;;;;;;5038988;28;1902;-58
2023/03/04 03:08:35;;;;;;;;;;;;;;;;;;5051306;28;1301;-67
2023/03/04 03:11:01;;;;;;;;;;;;;;;;;;5052521;28;1388;-66
2023/03/04 03:13:27;;;;;;;;;;;;;;;;;;5052444;28;1115;-67
2023/03/04 03:15:52;;;;;;;;;;;;;;;;;;5084354;28;1119;-65
2023/03/04 03:18:18;;;;;;;;;;;;;;;;;;5052366;28;1107;-66
2023/03/04 03:20:43;;;;;;;;;;;;;;;;;;5052102;28;1092;-66
2023/03/04 03:23:08;;;;;;;;;;;;;;;;;;5052422;28;1156;-62
2023/03/04 03:25:34;;;;;;;;;;;;;;;;;;5052105;28;1918;-65
2023/03/04 03:27:59;;;;;;;;;;;;;;;;;;5052583;28;1116;-67
2023/03/04 03:30:24;;;;;;;;;;;;;;;;;;5051963;28;1576;-66
2023/03/04 03:32:49;;;;;;;;;;;;;;;;;;5050648;28;1182;-65
2023/03/04 03:35:15;;;;;;;;;;;;;;;;;;5041819;28;1524;-66
2023/03/04 03:37:40;;;;;;;;;;;;;;;;;;5048445;28;1191;-64
2023/03/04 03:40:05;;;;;;;;;;;;;;;;;;5050905;28;2038;-65
2023/03/04 03:42:31;;;;;;;;;;;;;;;;;;5051742;28;1094;-66
2023/03/04 03:44:56;;;;;;;;;;;;;;;;;;5051856;28;1975;-67
2023/03/04 03:47:21;;;;;;;;;;;;;;;;;;5051843;28;1186;-64
2023/03/04 03:49:46;;;;;;;;;;;;;;;;;;5051355;28;1252;-67
2023/03/04 03:52:12;;;;;;;;;;;;;;;;;;5051548;28;1267;-67
2023/03/04 03:54:37;;;;;;;;;;;;;;;;;;5051682;28;1122;-66
2023/03/04 03:57:02;;;;;;;;;;;;;;;;;;5051867;28;1171;-67
2023/03/04 03:59:27;;;;;;;;;;;;;;;;;;5051885;28;1163;-67
2023/03/04 04:01:53;;;;;;;;;;;;;;;;;;5051688;28;1158;-67
2023/03/04 04:04:18;;;;;;;;;;;;;;;;;;5048981;28;1981;-67
2023/03/04 04:06:43;;;;;;;;;;;;;;;;;;5040171;28;1108;-67
2023/03/04 04:09:09;;;;;;;;;;;;;;;;;;5051393;28;1045;-67
2023/03/04 04:11:34;;;;;;;;;;;;;;;;;;5051568;28;1100;-60
2023/03/04 04:13:59;;;;;;;;;;;;;;;;;;5051374;28;1131;-67
2023/03/04 04:16:24;;;;;;;;;;;;;;;;;;5051547;28;1100;-68
2023/03/04 04:18:49;;;;;;;;;;;;;;;;;;5050861;28;1159;-65
2023/03/04 04:21:15;;;;;;;;;;;;;;;;;;5051437;28;1210;-65
2023/03/04 04:23:40;;;;;;;;;;;;;;;;;;5051380;28;1099;-65
2023/03/04 04:26:05;;;;;;;;;;;;;;;;;;5051439;28;1963;-67
2023/03/04 04:28:31;;;;;;;;;;;;;;;;;;5051136;28;1088;-66
2023/03/04 04:30:56;;;;;;;;;;;;;;;;;;5083625;28;1198;-67
2023/03/04 04:33:21;;;;;;;;;;;;;;;;;;5051167;28;1230;-65
2023/03/04 04:35:46;;;;;;;;;;;;;;;;;;5037263;28;1590;-62
2023/03/04 04:38:12;;;;;;;;;;;;;;;;;;5051299;28;1107;-61
2023/03/04 04:40:37;;;;;;;;;;;;;;;;;;5047728;28;1898;-68
2023/03/04 04:43:02;;;;;;;;;;;;;;;;;;5046160;28;1795;-67
2023/03/04 04:45:27;;;;;;;;;;;;;;;;;;5050877;28;1910;-68
2023/03/04 04:47:54;;;;;;;;;;;;;;;;;;5050963;28;1111;-63
2023/03/04 04:50:19;;;;;;;;;;;;;;;;;;5049196;28;1765;-67
2023/03/04 04:52:44;;;;;;;;;;;;;;;;;;5051330;28;1088;-67
2023/03/04 04:55:10;;;;;;;;;;;;;;;;;;5051267;28;1116;-67
2023/03/04 04:57:35;;;;;;;;;;;;;;;;;;5050896;28;1171;-65
2023/03/04 05:00:00;;;;;;;;;;;;;;;;;;5081674;28;1717;-64
2023/03/04 05:02:26;;;;;;;;;;;;;;;;;;5050567;28;1167;-65
2023/03/04 05:04:51;;;;;;;;;;;;;;;;;;5076630;28;1981;-67
2023/03/04 05:07:16;;;;;;;;;;;;;;;;;;5043898;28;1276;-68
2023/03/04 05:09:42;;;;;;;;;;;;;;;;;;5050109;28;1721;-67
2023/03/04 05:12:07;;;;;;;;;;;;;;;;;;5049776;28;1836;-67
2023/03/04 05:14:32;;;;;;;;;;;;;;;;;;5050758;28;1116;-63
2023/03/04 05:16:57;;;;;;;;;;;;;;;;;;5051398;28;1167;-65
2023/03/04 05:19:23;;;;;;;;;;;;;;;;;;5053755;28;1736;-67
2023/03/04 05:21:48;;;;;;;;;;;;;;;;;;5054039;28;1509;-66
2023/03/04 05:24:13;;;;;;;;;;;;;;;;;;5053809;28;2340;-67
2023/03/04 05:26:38;;;;;;;;;;;;;;;;;;5054463;28;1163;-67
2023/03/04 05:29:04;;;;;;;;;;;;;;;;;;5054413;28;1302;-67
2023/03/04 05:31:29;;;;;;;;;;;;;;;;;;5054440;28;1175;-68
2023/03/04 05:33:54;;;;;;;;;;;;;;;;;;5052639;28;1820;-67
2023/03/04 05:36:20;;;;;;;;;;;;;;;;;;5040740;28;1467;-68
2023/03/04 05:38:45;;;;;;;;;;;;;;;;;;5054449;28;1143;-65
2023/03/04 05:41:10;;;;;;;;;;;;;;;;;;5053005;28;1732;-68
2023/03/04 05:43:37;;;;;;;;;;;;;;;;;;5054122;28;1136;-66
2023/03/04 05:46:02;;;;;;;;;;;;;;;;;;5053833;28;1913;-66
2023/03/04 05:48:28;;;;;;;;;;;;;;;;;;5051682;28;1806;-67
2023/03/04 05:50:54;;;;;;;;;;;;;;;;;;5053877;28;1285;-67
2023/03/04 05:53:19;;;;;;;;;;;;;;;;;;5054041;28;1171;-69
2023/03/04 05:55:46;;;;;;;;;;;;;;;;;;5052825;28;1724;-67
2023/03/04 05:58:11;;;;;;;;;;;;;;;;;;5053387;28;1807;-67
2023/03/04 06:00:36;;;;;;;;;;;;;;;;;;5053093;28;1573;-67
2023/03/04 06:03:01;;;;;;;;;;;;;;;;;;5052024;28;1104;-67
2023/03/04 06:05:27;;;;;;;;;;;;;;;;;;5050802;28;1914;-66
2023/03/04 06:07:52;;;;;;;;;;;;;;;;;;5051133;28;1821;-62
2023/03/04 06:10:17;;;;;;;;;;;;;;;;;;5053165;28;1084;-61
2023/03/04 06:12:42;;;;;;;;;;;;;;;;;;5051074;28;1732;-64
2023/03/04 06:15:11;;;;;;;;;;;;;;;;;;5053782;28;1159;-65
2023/03/04 06:17:37;;;;;;;;;;;;;;;;;;5068102;28;1155;-68
2023/03/04 06:20:04;;;;;;;;;;;;;;;;;;5053266;28;1130;-65
2023/03/04 06:22:30;;;;;;;;;;;;;;;;;;5067906;28;1738;-66
2023/03/04 06:24:55;;;;;;;;;;;;;;;;;;5052577;28;1910;-67
2023/03/04 06:27:20;;;;;;;;;;;;;;;;;;5052593;28;1709;-65
2023/03/04 06:29:45;;;;;;;;;;;;;;;;;;5053228;28;1212;-67
2023/03/04 06:32:11;;;;;;;;;;;;;;;;;;5053041;28;1092;-67
2023/03/04 06:34:36;;;;;;;;;;;;;;;;;;5046974;28;1791;-67
2023/03/04 06:37:02;;;;;;;;;;;;;;;;;;5043201;28;1084;-67
2023/03/04 06:39:27;;;;;;;;;;;;;;;;;;5053030;28;1040;-66
2023/03/04 06:41:52;;;;;;;;;;;;;;;;;;5052839;28;1328;-67
2023/03/04 06:44:17;;;;;;;;;;;;;;;;;;5051687;28;1952;-66
2023/03/04 06:46:43;;;;;;;;;;;;;;;;;;5052719;28;1155;-64
2023/03/04 06:49:08;;;;;;;;;;;;;;;;;;5052865;28;1135;-66
2023/03/04 06:51:34;;;;;;;;;;;;;;;;;;5051972;28;1954;-63
2023/03/04 06:53:59;;;;;;;;;;;;;;;;;;5034311;28;1737;-67
2023/03/04 06:56:24;;;;;;;;;;;;;;;;;;5051694;28;1681;-67
2023/03/04 06:58:50;;;;;;;;;;;;;;;;;;5052618;28;1151;-67
2023/03/04 07:01:16;;;;;;;;;;;;;;;;;;5049969;28;1854;-66
2023/03/04 07:03:41;;;;;;;;;;;;;;;;;;5052596;28;1100;-68
2023/03/04 07:06:08;;;;;;;;;;;;;;;;;;5049709;28;1915;-67
2023/03/04 07:08:33;;;;;;;;;;;;;;;;;;5051942;28;1104;-66
2023/03/04 07:10:59;;;;;;;;;;;;;;;;;;5051508;28;1736;-65
2023/03/04 07:13:24;;;;;;;;;;;;;;;;;;5052602;28;1159;-65
2023/03/04 07:15:49;;;;;;;;;;;;;;;;;;5052402;28;1148;-63
2023/03/04 07:18:14;;;;;;;;;;;;;;;;;;5051398;28;1780;-65
2023/03/04 07:20:39;;;;;;;;;;;;;;;;;;5052091;28;1238;-68
2023/03/04 07:23:05;;;;;;;;;;;;;;;;;;5051811;28;1104;-67
2023/03/04 07:25:30;;;;;;;;;;;;;;;;;;5051964;28;2018;-68
2023/03/04 07:27:55;;;;;;;;;;;;;;;;;;5050439;28;1771;-67
2023/03/04 07:30:20;;;;;;;;;;;;;;;;;;5050679;28;1785;-63
2023/03/04 07:32:46;;;;;;;;;;;;;;;;;;5049782;28;1806;-66
2023/03/04 07:35:11;;;;;;;;;;;;;;;;;;5043113;28;1877;-64
2023/03/04 07:37:36;;;;;;;;;;;;;;;;;;5048406;28;1850;-63
2023/03/04 07:40:02;;;;;;;;;;;;;;;;;;5062856;28;1660;-67
2023/03/04 07:42:28;;;;;;;;;;;;;;;;;;5063683;28;1909;-61
2023/03/04 07:44:54;;;;;;;;;;;;;;;;;;5064889;28;1981;-67
2023/03/04 07:47:19;;;;;;;;;;;;;;;;;;5049016;28;1791;-67
2023/03/04 07:49:44;;;;;;;;;;;;;;;;;;5051061;28;1115;-64
2023/03/04 07:52:10;;;;;;;;;;;;;;;;;;5060458;28;2194;-68
2023/03/04 07:54:35;;;;;;;;;;;;;;;;;;5057467;28;1689;-64
2023/03/04 07:57:00;;;;;;;;;;;;;;;;;;5057098;28;1712;-64
2023/03/04 07:59:26;;;;;;;;;;;;;;;;;;5051855;28;1104;-68
2023/03/04 08:01:51;;;;;;;;;;;;;;;;;;5055981;28;1771;-66
2023/03/04 08:04:16;;;;;;;;;;;;;;;;;;5053465;28;1910;-68
2023/03/04 08:06:42;;;;;;;;;;;;;;;;;;5038332;28;1716;-66
2023/03/04 08:09:07;;;;;;;;;;;;;;;;;;5051189;28;1162;-67
2023/03/04 08:11:33;;;;;;;;;;;;;;;;;;5056682;28;1684;-67
2023/03/04 08:13:58;;;;;;;;;;;;;;;;;;5051400;28;1104;-68
2023/03/04 08:16:24;;;;;;;;;;;;;;;;;;5048774;28;1772;-68
2023/03/04 08:18:50;;;;;;;;;;;;;;;;;;5060423;28;1846;-68
2023/03/04 08:21:18;;;;;;;;;;;;;;;;;;5056050;28;1096;-64
2023/03/04 08:23:43;;;;;;;;;;;;;;;;;;5051034;28;1183;-68
2023/03/04 08:26:09;;;;;;;;;;;;;;;;;;5055724;28;1910;-68
2023/03/04 08:28:35;;;;;;;;;;;;;;;;;;5059883;28;1467;-68
2023/03/04 08:31:00;;;;;;;;;;;;;;;;;;5048358;28;1799;-68
2023/03/04 08:33:25;;;;;;;;;;;;;;;;;;5050815;28;1286;-69
2023/03/04 08:35:51;;;;;;;;;;;;;;;;;;5049413;28;1851;-66
2023/03/04 08:38:16;;;;;;;;;;;;;;;;;;5058264;28;1736;-66
2023/03/04 08:40:41;;;;;;;;;;;;;;;;;;5052244;28;1127;-67
2023/03/04 08:43:07;;;;;;;;;;;;;;;;;;5052801;28;1849;-68
2023/03/04 08:45:32;;;;;;;;;;;;;;;;;;5047507;28;1981;-68
2023/03/04 08:47:57;;;;;;;;;;;;;;;;;;5048563;28;1724;-68
2023/03/04 08:50:23;;;;;;;;;;;;;;;;;;5050468;28;1372;-63
2023/03/04 08:52:48;;;;;;;;;;;;;;;;;;5052303;28;1447;-68
2023/03/04 08:55:13;;;;;;;;;;;;;;;;;;5054377;28;1701;-67
2023/03/04 08:57:39;;;;;;;;;;;;;;;;;;5050126;28;1184;-68
2023/03/04 09:00:04;;;;;;;;;;;;;;;;;;5051280;28;1638;-55
2023/03/04 09:02:29;;;;;;;;;;;;;;;;;;5039828;28;2721;-66
2023/03/04 09:04:55;;;;;;;;;;;;;;;;;;5043583;28;2878;-68
2023/03/04 09:07:20;;;;;;;;;;;;;;;;;;5045338;28;1416;-65
2023/03/04 09:09:45;;;;;;;;;;;;;;;;;;5044612;28;2730;-67
2023/03/04 09:12:11;;;;;;;;;;;;;;;;;;5045796;28;1866;-67
2023/03/04 09:14:36;;;;;;;;;;;;;;;;;;5045975;28;1835;-62
2023/03/04 09:17:02;;;;;;;;;;;;;;;;;;5046693;28;1769;-66
2023/03/04 09:19:27;;;;;;;;;;;;;;;;;;5046166;28;1586;-64
2023/03/04 09:21:54;;;;;;;;;;;;;;;;;;5049907;28;2562;-67
2023/03/04 09:24:19;;;;;;;;;;;;;;;;;;5034078;28;6486;-68
2023/03/04 09:26:46;;;;;;;;;;;;;;;;;;5062514;28;1373;-65
2023/03/04 09:29:11;;;;;;;;;;;;;;;;;;5031466;28;4741;-64
2023/03/04 09:31:36;;;;;;;;;;;;;;;;;;5048111;28;1908;-68
2023/03/04 09:34:02;;;;;;;;;;;;;;;;;;5048504;28;1418;-67
2023/03/04 09:36:27;;;;;;;;;;;;;;;;;;5043713;28;1837;-67
2023/03/04 09:38:52;;;;;;;;;;;;;;;;;;5033367;28;6396;-65
2023/03/04 09:41:22;;;;;;;;;;;;;;;;;;5071976;28;1432;-67
2023/03/04 09:43:47;;;;;;;;;;;;;;;;;;5046319;28;1866;-67
2023/03/04 09:46:14;;;;;;;;;;;;;;;;;;5037889;28;1910;-58
2023/03/04 09:48:48;;;;;;;;;;;;;;;;;;5038230;28;1961;-67
2023/03/04 09:51:19;;;;;;;;;;;;;;;;;;5039049;28;6206;-63
2023/03/04 09:53:44;;;;;;;;;;;;;;;;;;5032010;28;5079;-66
2023/03/04 09:56:09;;;;;;;;;;;;;;;;;;5045496;28;5052;-60
2023/03/04 09:58:38;;;;;;;;;;;;;;;;;;5039794;28;5076;-67
2023/03/04 10:01:09;;;;;;;;;;;;;;;;;;5037021;28;4564;-66
2023/03/04 10:03:53;;;;;;;;;;;;;;;;;;5041462;28;4780;-64
2023/03/04 10:06:19;;;;;;;;;;;;;;;;;;5044233;28;4670;-66
2023/03/04 10:09:00;;;;;;;;;;;;;;;;;;5049874;28;1964;-66
2023/03/04 10:11:26;;;;;;;;;;;;;;;;;;5043085;28;1956;-67
2023/03/04 10:13:56;;;;;;;;;;;;;;;;;;5033588;28;6720;-68
2023/03/04 10:16:23;;;;;;;;;;;;;;;;;;5033807;28;5211;-60
2023/03/04 10:18:55;;;;;;;;;;;;;;;;;;5035882;28;5234;-59
2023/03/04 10:21:37;;;;;;;;;;;;;;;;;;5043668;28;5421;-57
2023/03/04 10:24:13;;;;;;;;;;;;;;;;;;5041472;28;4435;-61
2023/03/04 10:26:39;;;;;;;;;;;;;;;;;;5045635;28;4478;-57
2023/03/04 10:29:06;;;;;;;;;;;;;;;;;;5019270;28;6157;-60
2023/03/04 10:31:34;;;;;;;;;;;;;;;;;;5035116;28;5178;-59
2023/03/04 10:33:59;;;;;;;;;;;;;;;;;;5035045;28;5029;-58
2023/03/04 10:36:30;;;;;;;;;;;;;;;;;;5040596;28;3097;-60
2023/03/04 10:38:59;;;;;;;;;;;;;;;;;;5042063;28;4423;-60
2023/03/04 10:41:26;;;;;;;;;;;;;;;;;;5037786;28;4506;-62
2023/03/04 10:43:54;;;;;;;;;;;;;;;;;;5041500;28;4930;-66
2023/03/04 10:46:20;;;;;;;;;;;;;;;;;;5040781;28;4983;-58
2023/03/04 10:48:45;;;;;;;;;;;;;;;;;;5039092;28;5624;-56
2023/03/04 10:51:21;;;;;;;;;;;;;;;;;;5035301;28;3367;-62
2023/03/04 10:53:47;;;;;;;;;;;;;;;;;;5043011;28;4615;-65
2023/03/04 10:56:29;;;;;;;;;;;;;;;;;;5040585;28;4461;-60
2023/03/04 10:59:01;;;;;;;;;;;;;;;;;;5041830;28;4496;-64
2023/03/04 11:01:29;;;;;;;;;;;;;;;;;;5039076;28;4706;-67
2023/03/04 11:03:54;;;;;;;;;;;;;;;;;;5037997;28;4492;-68
2023/03/04 11:06:20;;;;;;;;;;;;;;;;;;5040420;28;3227;-65
2023/03/04 11:08:55;;;;;;;;;;;;;;;;;;5035926;28;4452;-66
2023/03/04 11:11:33;;;;;;;;;;;;;;;;;;5042539;28;4551;-63
2023/03/04 11:13:59;;;;;;;;;;;;;;;;;;5041757;28;4532;-51
2023/03/04 11:16:29;;;;;;;;;;;;;;;;;;5047672;28;5121;-62
2023/03/04 11:18:57;;;;;;;;;;;;;;;;;;5035064;28;4531;-62
2023/03/04 11:21:23;;;;;;;;;;;;;;;;;;5039240;28;6564;-61
2023/03/04 11:24:05;;;;;;;;;;;;;;;;;;5046313;28;5053;-56
2023/03/04 11:26:46;;;;;;;;;;;;;;;;;;5042656;28;5110;-63
2023/03/04 11:29:16;;;;;;;;;;;;;;;;;;5075714;28;5440;-61
2023/03/04 11:32:01;;;;;;;;;;;;;;;;;;5037452;28;4713;-61
2023/03/04 11:34:26;;;;;;;;;;;;;;;;;;5037378;28;5082;-61
2023/03/04 11:36:53;;;;;;;;;;;;;;;;;;5043007;28;5063;-62
2023/03/04 11:39:30;;;;;;;;;;;;;;;;;;5041266;28;2177;-68
2023/03/04 11:41:57;;;;;;;;;;;;;;;;;;5038490;28;4608;-61
2023/03/04 11:44:24;;;;;;;;;;;;;;;;;;5038990;28;4503;-73
2023/03/04 11:46:49;;;;;;;;;;;;;;;;;;5012990;28;4681;-60
2023/03/04 11:49:14;;;;;;;;;;;;;;;;;;5024732;28;4722;-62
2023/03/04 11:51:58;;;;;;;;;;;;;;;;;;5043310;28;4932;-59
2023/03/04 11:54:29;;;;;;;;;;;;;;;;;;5048143;28;3496;-58
2023/03/04 11:56:59;;;;;;;;;;;;;;;;;;5045481;28;4641;-61
2023/03/04 11:59:27;;;;;;;;;;;;;;;;;;5044116;28;4708;-60
2023/03/04 12:02:11;;;;;;;;;;;;;;;;;;5045065;28;5063;-60
2023/03/04 12:04:45;;;;;;;;;;;;;;;;;;5036876;28;5100;-61
2023/03/04 12:07:20;;;;;;;;;;;;;;;;;;5042523;28;5117;-61
2023/03/04 12:09:45;;;;;;;;;;;;;;;;;;5037716;28;4501;-61
2023/03/04 12:12:46;;;;;;;;;;;;;;;;;;5044588;28;3410;-61
2023/03/04 12:15:14;;;;;;;;;;;;;;;;;;5022795;28;5037;-63
2023/03/04 12:17:45;;;;;;;;;;;;;;;;;;5030839;28;5046;-59
2023/03/04 12:20:19;;;;;;;;;;;;;;;;;;5046463;28;5541;-55
2023/03/04 12:22:45;;;;;;;;;;;;;;;;;;5041315;28;5185;-65
2023/03/04 12:25:10;;;;;;;;;;;;;;;;;;5048140;28;4576;-62
2023/03/04 12:27:43;;;;;;;;;;;;;;;;;;5044761;28;3110;-58
2023/03/04 12:30:27;;;;;;;;;;;;;;;;;;5043690;28;4938;-57
2023/03/04 12:33:14;;;;;;;;;;;;;;;;;;5041212;28;4611;-55
2023/03/04 12:35:40;;;;;;;;;;;;;;;;;;5045194;28;5048;-57
2023/03/04 12:38:14;;;;;;;;;;;;;;;;;;5040715;28;4425;-56
2023/03/04 12:40:42;;;;;;;;;;;;;;;;;;5040659;28;4846;-56
2023/03/04 12:43:26;;;;;;;;;;;;;;;;;;5040782;28;4503;-55
2023/03/04 12:45:51;;;;;;;;;;;;;;;;;;5041754;28;4583;-56
2023/03/04 12:48:26;;;;;;;;;;;;;;;;;;5046956;28;2095;-56
2023/03/04 12:50:51;;;;;;;;;;;;;;;;;;5045220;28;5005;-56
2023/03/04 12:53:20;;;;;;;;;;;;;;;;;;5038079;28;5268;-57
2023/03/04 12:55:46;;;;;;;;;;;;;;;;;;5037329;28;4523;-56
2023/03/04 12:58:14;;;;;;;;;;;;;;;;;;5028804;28;4654;-56
2023/03/04 13:00:43;;;;;;;;;;;;;;;;;;5036123;28;4533;-55
2023/03/04 13:03:17;;;;;;;;;;;;;;;;;;5046357;28;1250;-57
2023/03/04 13:05:42;;;;;;;;;;;;;;;;;;5041446;28;4424;-58
2023/03/04 13:08:17;;;;;;;;;;;;;;;;;;5039993;28;4677;-57
2023/03/04 13:10:43;;;;;;;;;;;;;;;;;;5036943;28;4682;-59
2023/03/04 13:13:27;;;;;;;;;;;;;;;;;;5040664;28;4528;-58
2023/03/04 13:16:00;;;;;;;;;;;;;;;;;;5033261;28;4659;-59
2023/03/04 13:18:28;;;;;;;;;;;;;;;;;;5046112;28;3156;-60
2023/03/04 13:21:13;;;;;;;;;;;;;;;;;;5033703;28;5108;-56
2023/03/04 13:23:39;;;;;;;;;;;;;;;;;;5045933;28;4491;-58
2023/03/04 13:26:15;;;;;;;;;;;;;;;;;;5042145;28;4612;-62
2023/03/04 13:28:40;;;;;;;;;;;;;;;;;;5047303;28;5094;-59
2023/03/04 13:31:05;;;;;;;;;;;;;;;;;;5046326;28;4978;-59
2023/03/04 13:33:33;;;;;;;;;;;;;;;;;;5039006;28;3270;-58
2023/03/04 13:36:00;;;;;;;;;;;;;;;;;;5040657;28;4625;-59
2023/03/04 13:38:26;;;;;;;;;;;;;;;;;;5042163;28;5111;-60
2023/03/04 13:41:14;;;;;;;;;;;;;;;;;;5039269;28;5018;-58
2023/03/04 13:43:42;;;;;;;;;;;;;;;;;;5037747;28;4539;-58
2023/03/04 13:46:17;;;;;;;;;;;;;;;;;;5049212;28;5099;-59
2023/03/04 13:48:43;;;;;;;;;;;;;;;;;;5041231;28;4814;-59
2023/03/04 13:51:31;;;;;;;;;;;;;;;;;;5044947;28;1092;-60
2023/03/04 13:53:56;;;;;;;;;;;;;;;;;;5048794;28;4417;-60
2023/03/04 13:56:22;;;;;;;;;;;;;;;;;;5050523;28;4704;-58
2023/03/04 13:58:47;;;;;;;;;;;;;;;;;;5045441;28;4463;-59
2023/03/04 14:01:21;;;;;;;;;;;;;;;;;;5040968;28;4499;-58
2023/03/04 14:03:46;;;;;;;;;;;;;;;;;;5034084;28;4476;-58
2023/03/04 14:06:19;;;;;;;;;;;;;;;;;;5039408;28;1918;-58
2023/03/04 14:08:45;;;;;;;;;;;;;;;;;;5049744;28;4430;-60
2023/03/04 14:11:14;;;;;;;;;;;;;;;;;;5049763;28;4616;-59
2023/03/04 14:13:39;;;;;;;;;;;;;;;;;;5048442;28;5018;-57
2023/03/04 14:16:05;;;;;;;;;;;;;;;;;;5042566;28;4986;-60
2023/03/04 14:18:30;;;;;;;;;;;;;;;;;;5050164;28;1120;-60
2023/03/04 14:20:57;;;;;;;;;;;;;;;;;;5045506;28;4895;-59
2023/03/04 14:23:30;;;;;;;;;;;;;;;;;;5081084;28;4450;-60
2023/03/04 14:26:11;;;;;;;;;;;;;;;;;;5049040;28;4667;-60
2023/03/04 14:28:47;;;;;;;;;;;;;;;;;;5047840;28;4862;-58
2023/03/04 14:31:16;;;;;;;;;;;;;;;;;;5042100;28;4814;-59
2023/03/04 14:33:48;;;;;;;;;;;;;;;;;;5048258;28;4621;-58
2023/03/04 14:36:20;;;;;;;;;;;;;;;;;;5042357;28;1690;-58
2023/03/04 14:38:48;;;;;;;;;;;;;;;;;;5043508;28;5311;-59
2023/03/04 14:41:17;;;;;;;;;;;;;;;;;;5046739;28;4572;-59
2023/03/04 14:43:49;;;;;;;;;;;;;;;;;;5043021;28;4546;-58
2023/03/04 14:46:15;;;;;;;;;;;;;;;;;;5039448;28;4932;-58
2023/03/04 14:48:42;;;;;;;;;;;;;;;;;;5057285;28;4637;-58
2023/03/04 14:51:26;;;;;;;;;;;;;;;;;;5045094;28;1143;-58
2023/03/04 14:53:55;;;;;;;;;;;;;;;;;;5045669;28;4629;-58
2023/03/04 14:56:27;;;;;;;;;;;;;;;;;;5047337;28;5918;-58
2023/03/04 14:58:54;;;;;;;;;;;;;;;;;;5047292;28;4916;-59
2023/03/04 15:01:20;;;;;;;;;;;;;;;;;;5048126;28;4694;-59
2023/03/04 15:03:51;;;;;;;;;;;;;;;;;;5042793;28;5038;-59
2023/03/04 15:06:17;;;;;;;;;;;;;;;;;;5043452;28;2121;-59
2023/03/04 15:08:42;;;;;;;;;;;;;;;;;;5048688;28;4504;-59
2023/03/04 15:11:12;;;;;;;;;;;;;;;;;;5046616;28;5126;-60
2023/03/04 15:13:50;;;;;;;;;;;;;;;;;;5039964;28;4919;-59
2023/03/04 15:16:22;;;;;;;;;;;;;;;;;;5043055;28;4484;-59
2023/03/04 15:19:02;;;;;;;;;;;;;;;;;;5048370;28;5038;-59
2023/03/04 15:21:28;;;;;;;;;;;;;;;;;;5047892;28;1081;-59
2023/03/04 15:23:53;;;;;;;;;;;;;;;;;;5046592;28;4383;-57
2023/03/04 15:26:19;;;;;;;;;;;;;;;;;;5044918;28;4845;-59
2023/03/04 15:28:44;;;;;;;;;;;;;;;;;;5044010;28;4427;-59
2023/03/04 15:31:16;;;;;;;;;;;;;;;;;;5045546;28;4441;-59
2023/03/04 15:33:42;;;;;;;;;;;;;;;;;;5048161;28;5067;-59
2023/03/04 15:36:08;;;;;;;;;;;;;;;;;;5046371;28;1551;-59
2023/03/04 15:38:33;;;;;;;;;;;;;;;;;;5039839;28;4638;-59
2023/03/04 15:40:58;;;;;;;;;;;;;;;;;;5029589;28;4486;-59
2023/03/04 15:43:24;;;;;;;;;;;;;;;;;;5037811;28;4478;-59
2023/03/04 15:45:49;;;;;;;;;;;;;;;;;;5040234;28;4519;-59
2023/03/04 15:48:16;;;;;;;;;;;;;;;;;;5044793;28;1896;-59
2023/03/04 15:50:44;;;;;;;;;;;;;;;;;;5041324;28;4982;-59
2023/03/04 15:53:22;;;;;;;;;;;;;;;;;;5044036;28;4834;-59
2023/03/04 15:55:47;;;;;;;;;;;;;;;;;;5035384;28;4737;-59
2023/03/04 15:58:13;;;;;;;;;;;;;;;;;;5038307;28;5237;-59
2023/03/04 16:00:38;;;;;;;;;;;;;;;;;;5042519;28;4446;-59
2023/03/04 16:03:03;;;;;;;;;;;;;;;;;;5041512;28;2130;-59
2023/03/04 16:05:37;;;;;;;;;;;;;;;;;;5042414;28;4629;-59
2023/03/04 16:08:02;;;;;;;;;;;;;;;;;;5046089;28;4586;-59
2023/03/04 16:10:31;;;;;;;;;;;;;;;;;;5039139;28;4961;-60
2023/03/04 16:12:56;;;;;;;;;;;;;;;;;;5046204;28;4605;-59
2023/03/04 16:15:22;;;;;;;;;;;;;;;;;;5078262;28;1296;-59
2023/03/04 16:17:47;;;;;;;;;;;;;;;;;;5046747;28;4474;-59
2023/03/04 16:20:14;;;;;;;;;;;;;;;;;;5047275;28;4696;-58
2023/03/04 16:22:40;;;;;;;;;;;;;;;;;;5042499;28;5131;-59
2023/03/04 16:25:05;;;;;;;;;;;;;;;;;;5049335;28;4658;-60
2023/03/04 16:27:30;;;;;;;;;;;;;;;;;;5040001;28;1249;-59
2023/03/04 16:29:56;;;;;;;;;;;;;;;;;;5079305;28;4440;-59
2023/03/04 16:32:23;;;;;;;;;;;;;;;;;;5046724;28;4598;-59
2023/03/04 16:34:49;;;;;;;;;;;;;;;;;;5045889;28;4901;-59
2023/03/04 16:37:15;;;;;;;;;;;;;;;;;;5037208;28;4446;-59
2023/03/04 16:39:44;;;;;;;;;;;;;;;;;;5042885;28;4726;-59
2023/03/04 16:42:14;;;;;;;;;;;;;;;;;;5043934;28;1241;-59
2023/03/04 16:44:39;;;;;;;;;;;;;;;;;;5040104;28;4934;-59
2023/03/04 16:47:06;;;;;;;;;;;;;;;;;;5037173;28;4973;-60
2023/03/04 16:49:31;;;;;;;;;;;;;;;;;;5037483;28;4688;-60
2023/03/04 16:51:57;;;;;;;;;;;;;;;;;;5029800;28;4491;-59
2023/03/04 16:54:29;;;;;;;;;;;;;;;;;;5040058;28;3221;-59
2023/03/04 16:56:54;;;;;;;;;;;;;;;;;;5047233;28;4485;-59
2023/03/04 16:59:20;;;;;;;;;;;;;;;;;;5038689;28;4562;-59
2023/03/04 17:01:45;;;;;;;;;;;;;;;;;;5035390;28;5122;-59
2023/03/04 17:04:10;;;;;;;;;;;;;;;;;;5040605;28;4965;-59